sensor_id;sensor_type;location;lat;lon;timestamp;pressure;altitude;pressure_sealevel;temperature;humidity
50125;BME280;36023;48.670;6.184;2023-02-28T00:01:11;99688.06;;;14.31;32.37
50125;BME280;36023;48.670;6.184;2023-02-28T00:03:40;99688.97;;;14.30;32.34
50125;BME280;36023;48.670;6.184;2023-02-28T00:06:07;99683.75;;;14.30;32.45
50125;BME280;36023;48.670;6.184;2023-02-28T00:08:35;99689.88;;;14.29;32.26
50125;BME280;36023;48.670;6.184;2023-02-28T00:11:06;99694.22;;;14.29;32.30
50125;BME280;36023;48.670;6.184;2023-02-28T00:13:34;99690.75;;;14.28;32.28
50125;BME280;36023;48.670;6.184;2023-02-28T00:16:06;99695.13;;;14.28;32.30
50125;BME280;36023;48.670;6.184;2023-02-28T00:18:32;99694.28;;;14.27;32.22
50125;BME280;36023;48.670;6.184;2023-02-28T00:20:58;99693.41;;;14.27;32.20
50125;BME280;36023;48.670;6.184;2023-02-28T00:23:25;99688.22;;;14.27;32.33
50125;BME280;36023;48.670;6.184;2023-02-28T00:25:51;99687.34;;;14.26;32.17
50125;BME280;36023;48.670;6.184;2023-02-28T00:28:17;99685.66;;;14.25;32.29
50125;BME280;36023;48.670;6.184;2023-02-28T00:30:43;99696.06;;;14.25;32.18
50125;BME280;36023;48.670;6.184;2023-02-28T00:33:09;99688.25;;;14.23;32.22
50125;BME280;36023;48.670;6.184;2023-02-28T00:35:35;99696.09;;;14.23;32.08
50125;BME280;36023;48.670;6.184;2023-02-28T00:38:01;99700.44;;;14.23;32.12
50125;BME280;36023;48.670;6.184;2023-02-28T00:40:28;99692.66;;;14.21;31.99
50125;BME280;36023;48.670;6.184;2023-02-28T00:42:54;99697.84;;;14.23;31.85
50125;BME280;36023;48.670;6.184;2023-02-28T00:45:20;99695.28;;;14.21;32.10
50125;BME280;36023;48.670;6.184;2023-02-28T00:47:46;99695.28;;;14.21;31.95
50125;BME280;36023;48.670;6.184;2023-02-28T00:50:17;99704.84;;;14.21;31.86
50125;BME280;36023;48.670;6.184;2023-02-28T00:52:44;99704.00;;;14.20;31.92
50125;BME280;36023;48.670;6.184;2023-02-28T00:55:15;99698.81;;;14.19;31.85
50125;BME280;36023;48.670;6.184;2023-02-28T00:57:41;99704.03;;;14.19;31.71
50125;BME280;36023;48.670;6.184;2023-02-28T01:00:09;99700.56;;;14.18;31.86
50125;BME280;36023;48.670;6.184;2023-02-28T01:02:35;99700.56;;;14.18;31.75
50125;BME280;36023;48.670;6.184;2023-02-28T01:05:02;99704.06;;;14.17;31.89
50125;BME280;36023;48.670;6.184;2023-02-28T01:07:29;99707.56;;;14.16;31.83
50125;BME280;36023;48.670;6.184;2023-02-28T01:09:55;99704.09;;;14.16;31.67
50125;BME280;36023;48.670;6.184;2023-02-28T01:12:20;99699.78;;;14.15;31.67
50125;BME280;36023;48.670;6.184;2023-02-28T01:14:46;99707.59;;;14.15;31.67
50125;BME280;36023;48.670;6.184;2023-02-28T01:17:12;99708.47;;;14.14;31.88
50125;BME280;36023;48.670;6.184;2023-02-28T01:19:38;99706.78;;;14.13;31.66
50125;BME280;36023;48.670;6.184;2023-02-28T01:22:04;99708.47;;;14.14;31.62
50125;BME280;36023;48.670;6.184;2023-02-28T01:24:31;99707.69;;;14.12;31.57
50125;BME280;36023;48.670;6.184;2023-02-28T01:26:56;99710.28;;;14.12;31.65
50125;BME280;36023;48.670;6.184;2023-02-28T01:29:22;99710.28;;;14.12;31.49
50125;BME280;36023;48.670;6.184;2023-02-28T01:31:48;99719.00;;;14.11;31.57
50125;BME280;36023;48.670;6.184;2023-02-28T01:34:14;99712.94;;;14.10;31.41
50125;BME280;36023;48.670;6.184;2023-02-28T01:36:40;99710.38;;;14.09;31.52
50125;BME280;36023;48.670;6.184;2023-02-28T01:39:06;99710.38;;;14.09;31.51
50125;BME280;36023;48.670;6.184;2023-02-28T01:41:34;99709.53;;;14.07;31.57
50125;BME280;36023;48.670;6.184;2023-02-28T01:44:06;99708.66;;;14.06;31.46
50125;BME280;36023;48.670;6.184;2023-02-28T01:46:34;99711.28;;;14.06;31.58
50125;BME280;36023;48.670;6.184;2023-02-28T01:49:06;99713.03;;;14.06;31.51
50125;BME280;36023;48.670;6.184;2023-02-28T01:51:39;99710.47;;;14.04;31.46
50125;BME280;36023;48.670;6.184;2023-02-28T01:54:16;99712.22;;;14.04;31.47
50125;BME280;36023;48.670;6.184;2023-02-28T01:56:47;99707.91;;;14.03;31.43
50125;BME280;36023;48.670;6.184;2023-02-28T01:59:22;99712.25;;;14.02;31.47
50125;BME280;36023;48.670;6.184;2023-02-28T02:01:50;99707.94;;;14.01;31.50
50125;BME280;36023;48.670;6.184;2023-02-28T02:04:19;99706.19;;;14.02;31.47
50125;BME280;36023;48.670;6.184;2023-02-28T02:06:47;99700.16;;;14.00;31.34
50125;BME280;36023;48.670;6.184;2023-02-28T02:09:13;99700.16;;;14.00;31.23
50125;BME280;36023;48.670;6.184;2023-02-28T02:11:42;99689.72;;;14.00;31.30
50125;BME280;36023;48.670;6.184;2023-02-28T03:12:41;99670.06;;;13.88;31.15
50125;BME280;36023;48.670;6.184;2023-02-28T03:15:24;99674.41;;;13.87;31.04
50125;BME280;36023;48.670;6.184;2023-02-28T03:18:09;99670.97;;;13.87;31.02
50125;BME280;36023;48.670;6.184;2023-02-28T03:20:41;99672.66;;;13.88;31.06
50125;BME280;36023;48.670;6.184;2023-02-28T03:23:19;99670.97;;;13.87;31.03
50125;BME280;36023;48.670;6.184;2023-02-28T03:28:32;99675.31;;;13.86;31.03
50125;BME280;36023;48.670;6.184;2023-02-28T03:31:07;99673.56;;;13.87;31.03
50125;BME280;36023;48.670;6.184;2023-02-28T03:33:42;99670.13;;;13.85;30.92
50125;BME280;36023;48.670;6.184;2023-02-28T03:36:15;99676.22;;;13.85;30.88
50125;BME280;36023;48.670;6.184;2023-02-28T03:38:56;99674.47;;;13.84;31.04
50125;BME280;36023;48.670;6.184;2023-02-28T03:41:29;99670.16;;;13.83;30.97
50125;BME280;36023;48.670;6.184;2023-02-28T03:44:04;99666.69;;;13.83;30.87
50125;BME280;36023;48.670;6.184;2023-02-28T03:46:35;99669.31;;;13.83;30.85
50125;BME280;36023;48.670;6.184;2023-02-28T03:49:09;99668.44;;;13.82;30.90
50125;BME280;36023;48.670;6.184;2023-02-28T03:51:38;99669.34;;;13.81;30.89
50125;BME280;36023;48.670;6.184;2023-02-28T03:54:12;99662.44;;;13.80;30.83
50125;BME280;36023;48.670;6.184;2023-02-28T03:56:45;99668.50;;;13.81;30.91
50125;BME280;36023;48.670;6.184;2023-02-28T03:59:37;99667.63;;;13.80;30.97
50125;BME280;36023;48.670;6.184;2023-02-28T04:02:01;99671.13;;;13.79;30.62
50125;BME280;36023;48.670;6.184;2023-02-28T04:04:28;99666.84;;;13.78;30.89
50125;BME280;36023;48.670;6.184;2023-02-28T04:07:05;99668.59;;;13.78;30.83
50125;BME280;36023;48.670;6.184;2023-02-28T04:09:31;99672.03;;;13.77;30.77
50125;BME280;36023;48.670;6.184;2023-02-28T04:11:57;99668.59;;;13.78;30.88
50125;BME280;36023;48.670;6.184;2023-02-28T04:14:23;99664.28;;;13.75;30.74
50125;BME280;36023;48.670;6.184;2023-02-28T04:16:48;99670.34;;;13.76;30.78
50125;BME280;36023;48.670;6.184;2023-02-28T04:19:16;99669.47;;;13.75;30.87
50125;BME280;36023;48.670;6.184;2023-02-28T04:21:44;99672.09;;;13.75;30.87
50125;BME280;36023;48.670;6.184;2023-02-28T04:24:13;99664.31;;;13.74;30.85
50125;BME280;36023;48.670;6.184;2023-02-28T04:26:41;99669.53;;;13.74;30.84
50125;BME280;36023;48.670;6.184;2023-02-28T04:29:09;99667.78;;;13.74;30.79
50125;BME280;36023;48.670;6.184;2023-02-28T04:31:35;99666.97;;;13.72;30.80
50125;BME280;36023;48.670;6.184;2023-02-28T04:34:01;99657.44;;;13.71;30.71
50125;BME280;36023;48.670;6.184;2023-02-28T04:36:27;99655.75;;;13.70;30.86
50125;BME280;36023;48.670;6.184;2023-02-28T04:38:52;99660.94;;;13.70;30.71
50125;BME280;36023;48.670;6.184;2023-02-28T04:41:19;99662.66;;;13.71;30.78
50125;BME280;36023;48.670;6.184;2023-02-28T04:43:45;99659.22;;;13.69;30.72
50125;BME280;36023;48.670;6.184;2023-02-28T04:46:10;99662.66;;;13.71;30.78
50125;BME280;36023;48.670;6.184;2023-02-28T04:48:38;99663.56;;;13.69;30.87
50125;BME280;36023;48.670;6.184;2023-02-28T04:51:06;99664.41;;;13.69;30.69
50125;BME280;36023;48.670;6.184;2023-02-28T04:53:35;99674.88;;;13.68;30.54
50125;BME280;36023;48.670;6.184;2023-02-28T04:56:03;99673.13;;;13.68;30.66
50125;BME280;36023;48.670;6.184;2023-02-28T04:58:32;99671.41;;;13.67;30.64
50125;BME280;36023;48.670;6.184;2023-02-28T05:01:05;99676.63;;;13.67;30.74
50125;BME280;36023;48.670;6.184;2023-02-28T05:03:42;99680.06;;;13.68;30.70
50125;BME280;36023;48.670;6.184;2023-02-28T05:06:10;99676.63;;;13.67;30.70
50125;BME280;36023;48.670;6.184;2023-02-28T05:08:36;99672.31;;;13.66;30.62
50125;BME280;36023;48.670;6.184;2023-02-28T05:11:02;99674.91;;;13.66;30.63
50125;BME280;36023;48.670;6.184;2023-02-28T05:13:29;99676.66;;;13.65;30.62
50125;BME280;36023;48.670;6.184;2023-02-28T05:15:55;99682.75;;;13.64;30.54
50125;BME280;36023;48.670;6.184;2023-02-28T05:18:21;99682.75;;;13.64;30.62
50125;BME280;36023;48.670;6.184;2023-02-28T05:20:47;99681.91;;;13.64;30.70
50125;BME280;36023;48.670;6.184;2023-02-28T05:23:13;99680.19;;;13.63;30.55
50125;BME280;36023;48.670;6.184;2023-02-28T05:25:40;99692.31;;;13.64;30.56
50125;BME280;36023;48.670;6.184;2023-02-28T05:28:06;99697.53;;;13.64;30.61
50125;BME280;36023;48.670;6.184;2023-02-28T05:30:32;99694.97;;;13.62;30.48
50125;BME280;36023;48.670;6.184;2023-02-28T05:32:58;99699.31;;;13.62;30.61
50125;BME280;36023;48.670;6.184;2023-02-28T05:35:24;99697.56;;;13.62;30.51
50125;BME280;36023;48.670;6.184;2023-02-28T05:37:50;99700.16;;;13.62;30.84
50125;BME280;36023;48.670;6.184;2023-02-28T05:40:16;99698.41;;;13.63;30.84
50125;BME280;36023;48.670;6.184;2023-02-28T05:42:43;99701.03;;;13.63;31.05
50125;BME280;36023;48.670;6.184;2023-02-28T05:45:09;99693.13;;;13.66;30.98
50125;BME280;36023;48.670;6.184;2023-02-28T05:47:35;99692.06;;;13.75;31.23
50125;BME280;36023;48.670;6.184;2023-02-28T05:50:01;99691.00;;;13.83;31.17
50125;BME280;36023;48.670;6.184;2023-02-28T05:52:28;99693.41;;;13.91;31.34
50125;BME280;36023;48.670;6.184;2023-02-28T05:54:56;99695.78;;;14.02;31.27
50125;BME280;36023;48.670;6.184;2023-02-28T05:57:22;99694.75;;;14.09;31.37
50125;BME280;36023;48.670;6.184;2023-02-28T05:59:49;99697.06;;;14.19;31.31
50125;BME280;36023;48.670;6.184;2023-02-28T06:02:16;99702.13;;;14.26;31.27
50125;BME280;36023;48.670;6.184;2023-02-28T06:04:44;99707.16;;;14.33;30.89
50125;BME280;36023;48.670;6.184;2023-02-28T06:07:11;99706.97;;;14.41;31.20
50125;BME280;36023;48.670;6.184;2023-02-28T06:09:37;99708.56;;;14.46;31.01
50125;BME280;36023;48.670;6.184;2023-02-28T06:12:04;99711.00;;;14.53;31.18
50125;BME280;36023;48.670;6.184;2023-02-28T06:14:35;99713.50;;;14.57;31.08
50125;BME280;36023;48.670;6.184;2023-02-28T06:17:02;99711.63;;;14.62;30.91
50125;BME280;36023;48.670;6.184;2023-02-28T06:19:28;99718.47;;;14.66;30.99
50125;BME280;36023;48.670;6.184;2023-02-28T06:21:56;99723.59;;;14.71;30.89
50125;BME280;36023;48.670;6.184;2023-02-28T06:24:24;99725.19;;;14.75;30.90
50125;BME280;36023;48.670;6.184;2023-02-28T06:26:50;99732.06;;;14.79;30.90
50125;BME280;36023;48.670;6.184;2023-02-28T06:29:16;99730.25;;;14.81;30.77
50125;BME280;36023;48.670;6.184;2023-02-28T06:31:44;99729.25;;;14.85;31.02
50125;BME280;36023;48.670;6.184;2023-02-28T06:34:11;99735.28;;;14.89;30.64
50125;BME280;36023;48.670;6.184;2023-02-28T06:36:38;99740.38;;;14.92;30.77
50125;BME280;36023;48.670;6.184;2023-02-28T06:39:05;99740.31;;;14.95;30.62
50125;BME280;36023;48.670;6.184;2023-02-28T06:41:31;99748.09;;;14.96;30.74
50125;BME280;36023;48.670;6.184;2023-02-28T06:44:04;99743.75;;;14.97;30.70
50125;BME280;36023;48.670;6.184;2023-02-28T06:46:31;99745.50;;;14.96;30.61
50125;BME280;36023;48.670;6.184;2023-02-28T06:48:57;99743.75;;;14.97;30.57
50125;BME280;36023;48.670;6.184;2023-02-28T06:51:22;99743.78;;;14.95;30.52
50125;BME280;36023;48.670;6.184;2023-02-28T06:53:50;99756.00;;;14.93;30.46
50125;BME280;36023;48.670;6.184;2023-02-28T06:56:17;99752.53;;;14.93;30.62
50125;BME280;36023;48.670;6.184;2023-02-28T06:58:49;99746.50;;;14.91;30.44
50125;BME280;36023;48.670;6.184;2023-02-28T07:01:16;99756.13;;;14.89;30.51
50125;BME280;36023;48.670;6.184;2023-02-28T07:03:42;99758.78;;;14.87;30.37
50125;BME280;36023;48.670;6.184;2023-02-28T07:06:09;99764.03;;;14.86;30.41
50125;BME280;36023;48.670;6.184;2023-02-28T07:08:35;99764.13;;;14.83;30.53
50125;BME280;36023;48.670;6.184;2023-02-28T07:11:01;99757.22;;;14.80;30.51
50125;BME280;36023;48.670;6.184;2023-02-28T07:13:27;99762.50;;;14.77;30.27
50125;BME280;36023;48.670;6.184;2023-02-28T07:15:54;99761.72;;;14.75;31.25
50125;BME280;36023;48.670;6.184;2023-02-28T07:18:20;99759.91;;;14.77;32.16
50125;BME280;36023;48.670;6.184;2023-02-28T07:20:47;99760.75;;;14.79;32.74
50125;BME280;36023;48.670;6.184;2023-02-28T07:23:13;99762.50;;;14.77;33.03
50125;BME280;36023;48.670;6.184;2023-02-28T07:25:38;99761.72;;;14.75;33.48
50125;BME280;36023;48.670;6.184;2023-02-28T07:28:04;99758.28;;;14.73;34.11
50125;BME280;36023;48.670;6.184;2023-02-28T07:30:30;99764.47;;;14.69;34.09
50125;BME280;36023;48.670;6.184;2023-02-28T07:32:55;99765.47;;;14.65;34.41
50125;BME280;36023;48.670;6.184;2023-02-28T07:35:22;99765.56;;;14.60;34.57
50125;BME280;36023;48.670;6.184;2023-02-28T07:37:47;99756.97;;;14.57;34.81
50125;BME280;36023;48.670;6.184;2023-02-28T07:40:14;99760.53;;;14.53;35.05
50125;BME280;36023;48.670;6.184;2023-02-28T07:42:41;99760.63;;;14.49;35.24
50125;BME280;36023;48.670;6.184;2023-02-28T07:45:09;99765.91;;;14.45;35.41
50125;BME280;36023;48.670;6.184;2023-02-28T07:47:41;99759.06;;;14.41;35.60
50125;BME280;36023;48.670;6.184;2023-02-28T07:50:10;99758.22;;;14.39;35.75
50125;BME280;36023;48.670;6.184;2023-02-28T07:52:37;99761.78;;;14.36;35.88
50125;BME280;36023;48.670;6.184;2023-02-28T07:55:04;99754.94;;;14.32;36.19
50125;BME280;36023;48.670;6.184;2023-02-28T07:57:31;99757.56;;;14.31;36.17
50125;BME280;36023;48.670;6.184;2023-02-28T07:59:57;99750.75;;;14.27;36.08
50125;BME280;36023;48.670;6.184;2023-02-28T08:02:23;99756.00;;;14.25;36.18
50125;BME280;36023;48.670;6.184;2023-02-28T08:04:49;99743.88;;;14.22;36.31
50125;BME280;36023;48.670;6.184;2023-02-28T08:07:16;99754.38;;;14.19;36.21
50125;BME280;36023;48.670;6.184;2023-02-28T08:09:42;99750.09;;;14.17;36.25
50125;BME280;36023;48.670;6.184;2023-02-28T08:12:09;99746.66;;;14.15;36.28
50125;BME280;36023;48.670;6.184;2023-02-28T08:14:35;99741.53;;;14.12;36.36
50125;BME280;36023;48.670;6.184;2023-02-28T08:17:02;99739.81;;;14.11;36.33
50125;BME280;36023;48.670;6.184;2023-02-28T08:19:28;99747.69;;;14.08;36.28
50125;BME280;36023;48.670;6.184;2023-02-28T08:21:54;99748.59;;;14.07;36.31
50125;BME280;36023;48.670;6.184;2023-02-28T08:24:20;99754.75;;;14.04;36.25
50125;BME280;36023;48.670;6.184;2023-02-28T08:26:46;99751.31;;;14.02;36.38
50125;BME280;36023;48.670;6.184;2023-02-28T08:29:11;99748.72;;;14.01;36.28
50125;BME280;36023;48.670;6.184;2023-02-28T08:31:37;99752.22;;;14.00;36.30
50125;BME280;36023;48.670;6.184;2023-02-28T08:34:08;99743.59;;;13.98;36.26
50125;BME280;36023;48.670;6.184;2023-02-28T08:36:34;99752.31;;;13.97;36.11
50125;BME280;36023;48.670;6.184;2023-02-28T08:39:00;99749.75;;;13.95;36.23
50125;BME280;36023;48.670;6.184;2023-02-28T08:41:25;99758.47;;;13.94;36.18
50125;BME280;36023;48.670;6.184;2023-02-28T08:43:53;99749.81;;;13.92;36.12
50125;BME280;36023;48.670;6.184;2023-02-28T08:46:19;99753.31;;;13.91;36.22
50125;BME280;36023;48.670;6.184;2023-02-28T08:48:45;99749.84;;;13.90;36.07
50125;BME280;36023;48.670;6.184;2023-02-28T08:51:16;99761.16;;;13.89;36.12
50125;BME280;36023;48.670;6.184;2023-02-28T08:53:44;99755.09;;;13.89;36.11
50125;BME280;36023;48.670;6.184;2023-02-28T08:56:12;99756.84;;;13.88;35.97
50125;BME280;36023;48.670;6.184;2023-02-28T08:58:39;99760.34;;;13.87;35.92
50125;BME280;36023;48.670;6.184;2023-02-28T09:01:14;99757.78;;;13.84;35.92
50125;BME280;36023;48.670;6.184;2023-02-28T09:03:42;99756.91;;;13.85;35.92
50125;BME280;36023;48.670;6.184;2023-02-28T09:06:10;99760.38;;;13.84;35.91
50125;BME280;36023;48.670;6.184;2023-02-28T09:08:37;99766.44;;;13.85;35.82
50125;BME280;36023;48.670;6.184;2023-02-28T09:11:03;99770.00;;;13.82;35.86
50125;BME280;36023;48.670;6.184;2023-02-28T09:13:31;99763.06;;;13.81;35.83
50125;BME280;36023;48.670;6.184;2023-02-28T09:15:58;99764.88;;;13.79;35.63
50125;BME280;36023;48.670;6.184;2023-02-28T09:18:25;99766.56;;;13.80;35.59
50125;BME280;36023;48.670;6.184;2023-02-28T09:20:52;99769.22;;;13.79;35.60
50125;BME280;36023;48.670;6.184;2023-02-28T09:23:18;99764.91;;;13.78;35.49
50125;BME280;36023;48.670;6.184;2023-02-28T09:25:54;99754.50;;;13.76;35.47
50125;BME280;36023;48.670;6.184;2023-02-28T09:28:20;99764.91;;;13.76;35.31
50125;BME280;36023;48.670;6.184;2023-02-28T09:30:49;99758.84;;;13.76;35.44
50125;BME280;36023;48.670;6.184;2023-02-28T09:33:16;99760.59;;;13.75;35.44
50125;BME280;36023;48.670;6.184;2023-02-28T09:35:42;99763.19;;;13.75;35.41
50125;BME280;36023;48.670;6.184;2023-02-28T09:38:09;99760.63;;;13.74;35.31
50125;BME280;36023;48.670;6.184;2023-02-28T09:40:42;99758.88;;;13.74;35.35
50125;BME280;36023;48.670;6.184;2023-02-28T09:43:14;99749.38;;;13.73;35.30
50125;BME280;36023;48.670;6.184;2023-02-28T09:45:42;99764.09;;;13.74;35.26
50125;BME280;36023;48.670;6.184;2023-02-28T09:48:23;99763.28;;;13.72;35.16
50125;BME280;36023;48.670;6.184;2023-02-28T09:51:05;99764.00;;;13.77;34.95
50125;BME280;36023;48.670;6.184;2023-02-28T09:53:37;99758.81;;;13.79;34.77
50125;BME280;36023;48.670;6.184;2023-02-28T09:56:11;99760.56;;;13.77;34.89
50125;BME280;36023;48.670;6.184;2023-02-28T09:58:51;99759.78;;;13.73;34.73
50125;BME280;36023;48.670;6.184;2023-02-28T10:01:24;99760.69;;;13.72;34.73
50125;BME280;36023;48.670;6.184;2023-02-28T10:03:58;99747.72;;;13.69;34.74
50125;BME280;36023;48.670;6.184;2023-02-28T10:06:29;99753.81;;;13.70;34.73
50125;BME280;36023;48.670;6.184;2023-02-28T10:09:02;99761.63;;;13.68;34.59
50125;BME280;36023;48.670;6.184;2023-02-28T10:11:32;99753.81;;;13.68;34.58
50125;BME280;36023;48.670;6.184;2023-02-28T10:14:09;99755.59;;;13.66;34.48
50125;BME280;36023;48.670;6.184;2023-02-28T10:16:45;99749.50;;;13.67;34.53
50125;BME280;36023;48.670;6.184;2023-02-28T10:19:17;99767.75;;;13.65;34.27
50125;BME280;36023;48.670;6.184;2023-02-28T10:22:35;99757.38;;;13.64;34.46
50125;BME280;36023;48.670;6.184;2023-02-28T10:24:55;99766.94;;;13.63;34.32
50125;BME280;36023;48.670;6.184;2023-02-28T10:27:24;99764.38;;;13.62;34.38
50125;BME280;36023;48.670;6.184;2023-02-28T10:29:52;99766.13;;;13.60;34.42
50125;BME280;36023;48.670;6.184;2023-02-28T10:32:21;99756.63;;;13.59;34.48
50125;BME280;36023;48.670;6.184;2023-02-28T10:35:00;99764.47;;;13.57;34.49
50125;BME280;36023;48.670;6.184;2023-02-28T10:37:30;99760.13;;;13.58;34.58
50125;BME280;36023;48.670;6.184;2023-02-28T10:39:58;99759.22;;;13.59;34.63
50125;BME280;36023;48.670;6.184;2023-02-28T10:42:28;99762.63;;;13.61;34.49
50125;BME280;36023;48.670;6.184;2023-02-28T10:45:14;99761.78;;;13.62;34.38
50125;BME280;36023;48.670;6.184;2023-02-28T10:50:35;99761.56;;;13.71;34.46
50125;BME280;36023;48.670;6.184;2023-02-28T10:56:02;99761.50;;;13.74;34.41
50125;BME280;36023;48.670;6.184;2023-02-28T10:58:33;99764.13;;;13.73;34.37
50125;BME280;36023;48.670;6.184;2023-02-28T11:01:14;99756.38;;;13.71;34.39
50125;BME280;36023;48.670;6.184;2023-02-28T11:03:40;99757.25;;;13.70;34.31
50125;BME280;36023;48.670;6.184;2023-02-28T11:06:10;99761.59;;;13.70;34.08
50125;BME280;36023;48.670;6.184;2023-02-28T11:08:59;99766.81;;;13.68;34.17
50125;BME280;36023;48.670;6.184;2023-02-28T11:11:29;99756.44;;;13.66;34.27
50125;BME280;36023;48.670;6.184;2023-02-28T11:14:06;99763.41;;;13.66;33.97
50125;BME280;36023;48.670;6.184;2023-02-28T11:16:42;99754.78;;;13.64;34.00
50125;BME280;36023;48.670;6.184;2023-02-28T11:19:19;99758.25;;;13.64;34.17
50125;BME280;36023;48.670;6.184;2023-02-28T11:21:55;99755.69;;;13.63;34.00
50125;BME280;36023;48.670;6.184;2023-02-28T11:24:33;99753.97;;;13.62;34.01
50125;BME280;36023;48.670;6.184;2023-02-28T11:27:01;99760.03;;;13.61;34.22
50125;BME280;36023;48.670;6.184;2023-02-28T11:29:30;99750.53;;;13.60;33.91
50125;BME280;36023;48.670;6.184;2023-02-28T11:32:12;99760.03;;;13.61;34.27
50125;BME280;36023;48.670;6.184;2023-02-28T11:34:40;99749.66;;;13.59;33.94
50125;BME280;36023;48.670;6.184;2023-02-28T11:37:16;99748.81;;;13.59;34.02
50125;BME280;36023;48.670;6.184;2023-02-28T11:39:44;99753.19;;;13.57;34.03
50125;BME280;36023;48.670;6.184;2023-02-28T11:53:01;99754.09;;;13.56;33.95
50125;BME280;36023;48.670;6.184;2023-02-28T11:55:35;99753.25;;;13.55;33.73
50125;BME280;36023;48.670;6.184;2023-02-28T11:58:29;99762.78;;;13.55;33.85
50125;BME280;36023;48.670;6.184;2023-02-28T12:06:41;99751.53;;;13.53;33.86
50125;BME280;36023;48.670;6.184;2023-02-28T12:11:55;99748.13;;;13.51;33.76
50125;BME280;36023;48.670;6.184;2023-02-28T12:14:25;99750.69;;;13.52;33.60
50125;BME280;36023;48.670;6.184;2023-02-28T12:22:29;99742.91;;;13.51;33.70
50125;BME280;36023;48.670;6.184;2023-02-28T12:27:56;99745.47;;;13.52;33.65
50125;BME280;36023;48.670;6.184;2023-02-28T12:30:25;99749.00;;;13.50;33.69
50125;BME280;36023;48.670;6.184;2023-02-28T12:33:06;99747.25;;;13.50;33.62
50125;BME280;36023;48.670;6.184;2023-02-28T12:35:56;99741.22;;;13.50;33.61
50125;BME280;36023;48.670;6.184;2023-02-28T12:39:00;99741.13;;;13.53;33.61
50125;BME280;36023;48.670;6.184;2023-02-28T12:41:42;99742.88;;;13.52;33.53
50125;BME280;36023;48.670;6.184;2023-02-28T12:44:16;99741.13;;;13.54;33.67
50125;BME280;36023;48.670;6.184;2023-02-28T12:46:49;99733.16;;;13.60;33.73
50125;BME280;36023;48.670;6.184;2023-02-28T12:49:22;99744.28;;;13.67;33.57
50125;BME280;36023;48.670;6.184;2023-02-28T12:51:50;99741.59;;;13.72;33.68
50125;BME280;36023;48.670;6.184;2023-02-28T12:57:09;99737.13;;;13.78;33.68
50125;BME280;36023;48.670;6.184;2023-02-28T12:59:48;99742.28;;;13.80;33.16
50125;BME280;36023;48.670;6.184;2023-02-28T13:05:46;99738.81;;;13.79;33.37
50125;BME280;36023;48.670;6.184;2023-02-28T13:10:57;99741.47;;;13.78;33.20
50125;BME280;36023;48.670;6.184;2023-02-28T13:13:25;99735.47;;;13.74;33.13
50125;BME280;36023;48.670;6.184;2023-02-28T13:16:09;99743.31;;;13.73;33.21
50125;BME280;36023;48.670;6.184;2023-02-28T13:18:39;99743.34;;;13.71;33.22
50125;BME280;36023;48.670;6.184;2023-02-28T13:21:18;99739.91;;;13.69;33.11
50125;BME280;36023;48.670;6.184;2023-02-28T13:26:23;99738.22;;;13.66;33.16
50125;BME280;36023;48.670;6.184;2023-02-28T13:31:15;99736.59;;;13.62;33.10
50125;BME280;36023;48.670;6.184;2023-02-28T13:34:14;99734.00;;;13.62;33.11
50125;BME280;36023;48.670;6.184;2023-02-28T13:36:40;99732.31;;;13.60;33.08
50125;BME280;36023;48.670;6.184;2023-02-28T13:42:22;99728.88;;;13.58;33.08
50125;BME280;36023;48.670;6.184;2023-02-28T14:01:53;99734.22;;;13.52;32.96
50125;BME280;36023;48.670;6.184;2023-02-28T14:07:09;99738.59;;;13.50;33.04
50125;BME280;36023;48.670;6.184;2023-02-28T14:09:46;99741.22;;;13.50;32.98
50125;BME280;36023;48.670;6.184;2023-02-28T14:15:47;99741.25;;;13.48;33.25
50125;BME280;36023;48.670;6.184;2023-02-28T14:18:42;99735.19;;;13.48;32.99
50125;BME280;36023;48.670;6.184;2023-02-28T14:21:19;99743.00;;;13.48;32.92
50125;BME280;36023;48.670;6.184;2023-02-28T14:27:11;99737.75;;;13.49;33.12
50125;BME280;36023;48.670;6.184;2023-02-28T14:35:27;99735.88;;;13.56;33.24
50125;BME280;36023;48.670;6.184;2023-02-28T14:37:55;99740.91;;;13.63;33.14
50125;BME280;36023;48.670;6.184;2023-02-28T14:40:27;99744.25;;;13.70;32.97
50125;BME280;36023;48.670;6.184;2023-02-28T14:42:57;99739.78;;;13.75;32.88
50125;BME280;36023;48.670;6.184;2023-02-28T14:45:29;99742.31;;;13.78;32.98
50125;BME280;36023;48.670;6.184;2023-02-28T14:47:56;99743.13;;;13.80;32.89
50125;BME280;36023;48.670;6.184;2023-02-28T14:50:25;99753.50;;;13.82;32.81
50125;BME280;36023;48.670;6.184;2023-02-28T14:52:53;99744.81;;;13.83;32.80
50125;BME280;36023;48.670;6.184;2023-02-28T14:55:27;99742.16;;;13.84;32.88
50125;BME280;36023;48.670;6.184;2023-02-28T14:57:58;99740.41;;;13.86;32.77
50125;BME280;36023;48.670;6.184;2023-02-28T15:00:29;99723.94;;;13.86;32.81
50125;BME280;36023;48.670;6.184;2023-02-28T15:02:56;99729.13;;;13.86;32.74
50125;BME280;36023;48.670;6.184;2023-02-28T15:05:27;99727.41;;;13.85;32.69
50125;BME280;36023;48.670;6.184;2023-02-28T15:08:12;99730.03;;;13.83;32.67
50125;BME280;36023;48.670;6.184;2023-02-28T15:11:02;99726.63;;;13.81;32.54
50125;BME280;36023;48.670;6.184;2023-02-28T15:13:38;99728.44;;;13.78;32.57
50125;BME280;36023;48.670;6.184;2023-02-28T15:16:51;99733.66;;;13.76;32.48
50125;BME280;36023;48.670;6.184;2023-02-28T15:19:00;99725.03;;;13.74;32.62
50125;BME280;36023;48.670;6.184;2023-02-28T15:21:31;99723.34;;;13.73;32.46
50125;BME280;36023;48.670;6.184;2023-02-28T15:27:10;99732.09;;;13.69;32.53
50125;BME280;36023;48.670;6.184;2023-02-28T15:29:45;99728.69;;;13.67;32.61
50125;BME280;36023;48.670;6.184;2023-02-28T15:32:33;99733.91;;;13.65;32.54
50125;BME280;36023;48.670;6.184;2023-02-28T15:34:59;99728.75;;;13.64;32.61
50125;BME280;36023;48.670;6.184;2023-02-28T15:37:48;99725.28;;;13.63;32.60
50125;BME280;36023;48.670;6.184;2023-02-28T15:40:29;99727.94;;;13.62;32.48
50125;BME280;36023;48.670;6.184;2023-02-28T15:43:04;99722.75;;;13.60;32.70